Time;durP1;ratioP1;P1;durP2;ratioP2;P2;SDS_P1;SDS_P2;PMS_P1;PMS_P2;Temp;Humidity;BMP_temperature;BMP_pressure;BME280_temperature;BME280_humidity;BME280_pressure;Samples;Min_cycle;Max_cycle;Signal;HPM_P1;HPM_P2
2023/02/09 00:00:15;;;;;;;8.50;5.88;;;;;;;;;;2083514;28;20029;-76
2023/02/09 00:01:34;;;;;;;8.88;6.18;;;;;;;;;;2081529;28;20037;-76
2023/02/09 00:02:53;;;;;;;9.52;5.43;;;;;;;;;;2075487;28;20052;-76
2023/02/09 00:04:12;;;;;;;9.30;6.18;;;;;;;;;;2080075;28;20033;-76
2023/02/09 00:05:31;;;;;;;12.07;6.22;;;;;;;;;;2084699;28;20021;-76
2023/02/09 00:06:50;;;;;;;9.98;5.90;;;;;;;;;;2084200;28;20393;-76
2023/02/09 00:08:08;;;;;;;8.30;5.57;;;;;;;;;;2078960;28;20112;-76
2023/02/09 00:09:27;;;;;;;7.38;5.55;;;;;;;;;;2078687;28;20021;-76
2023/02/09 00:10:46;;;;;;;8.90;5.57;;;;;;;;;;2077581;28;20037;-77
2023/02/09 00:13:42;;;;;;;6.88;5.13;;;;;;;;;;2082434;28;20025;-74
2023/02/09 00:15:02;;;;;;;8.40;5.20;;;;;;;;;;2083334;28;20037;-77
2023/02/09 00:16:24;;;;;;;7.25;5.05;;;;;;;;;;2083266;28;20029;-76
2023/02/09 00:17:43;;;;;;;11.63;5.50;;;;;;;;;;2073023;28;20407;-75
2023/02/09 00:19:02;;;;;;;7.90;5.07;;;;;;;;;;2074533;28;20038;-75
2023/02/09 00:20:21;;;;;;;6.13;5.43;;;;;;;;;;2078711;28;20025;-77
2023/02/09 00:21:40;;;;;;;5.10;4.00;;;;;;;;;;2083885;28;20084;-76
2023/02/09 00:22:59;;;;;;;4.97;4.25;;;;;;;;;;2080913;28;20089;-76
2023/02/09 00:24:18;;;;;;;5.05;4.32;;;;;;;;;;2084667;28;20482;-76
2023/02/09 00:25:38;;;;;;;4.80;3.97;;;;;;;;;;2078798;28;20045;-75
2023/02/09 00:26:57;;;;;;;6.20;4.32;;;;;;;;;;2082258;28;20029;-77
2023/02/09 00:28:16;;;;;;;7.10;4.28;;;;;;;;;;2082298;28;20026;-79
2023/02/09 00:29:35;;;;;;;5.57;3.90;;;;;;;;;;2083110;28;20025;-76
2023/02/09 00:30:54;;;;;;;3.92;3.60;;;;;;;;;;2089682;28;20060;-78
2023/02/09 00:32:13;;;;;;;6.20;3.65;;;;;;;;;;2085371;28;20112;-76
2023/02/09 00:33:32;;;;;;;5.47;4.32;;;;;;;;;;2080275;28;20040;-76
2023/02/09 00:34:51;;;;;;;4.35;3.50;;;;;;;;;;2079265;28;20021;-75
2023/02/09 00:36:11;;;;;;;7.28;4.45;;;;;;;;;;2085581;28;20030;-77
2023/02/09 00:37:30;;;;;;;7.10;3.80;;;;;;;;;;2078971;28;20045;-75
2023/02/09 00:38:49;;;;;;;4.68;3.80;;;;;;;;;;2079581;28;20487;-76
2023/02/09 00:40:08;;;;;;;4.28;3.88;;;;;;;;;;2084125;28;20025;-75
2023/02/09 00:43:06;;;;;;;3.63;3.33;;;;;;;;;;2083935;28;20026;-76
2023/02/09 00:44:25;;;;;;;4.13;3.70;;;;;;;;;;2081420;28;20969;-79
2023/02/09 00:45:43;;;;;;;4.25;3.25;;;;;;;;;;2078595;28;20037;-76
2023/02/09 00:47:03;;;;;;;4.45;3.22;;;;;;;;;;2078768;28;20128;-76
2023/02/09 00:48:22;;;;;;;5.97;3.55;;;;;;;;;;2088680;28;20029;-76
2023/02/09 00:49:41;;;;;;;3.60;2.85;;;;;;;;;;2086077;28;20025;-76
2023/02/09 00:51:01;;;;;;;5.40;3.72;;;;;;;;;;2081088;28;20026;-76
2023/02/09 00:52:20;;;;;;;4.82;3.03;;;;;;;;;;2082145;28;20029;-75
2023/02/09 00:53:39;;;;;;;5.65;3.80;;;;;;;;;;2084498;28;20029;-76
2023/02/09 00:54:58;;;;;;;3.72;3.28;;;;;;;;;;2082398;28;20029;-77
2023/02/09 00:56:17;;;;;;;5.80;3.42;;;;;;;;;;2083195;28;20034;-75
2023/02/09 00:57:36;;;;;;;4.70;3.78;;;;;;;;;;2082834;28;20026;-76
2023/02/09 00:58:55;;;;;;;3.10;2.75;;;;;;;;;;2078997;28;20128;-76
2023/02/09 01:00:14;;;;;;;3.75;3.45;;;;;;;;;;2083034;28;20406;-76
2023/02/09 01:01:33;;;;;;;3.90;2.67;;;;;;;;;;2084990;28;20064;-76
2023/02/09 01:02:54;;;;;;;3.50;3.00;;;;;;;;;;2081129;28;20406;-75
2023/02/09 01:04:13;;;;;;;5.68;2.85;;;;;;;;;;2081570;28;20033;-76
2023/02/09 01:05:32;;;;;;;4.95;3.03;;;;;;;;;;2080956;28;20091;-76
2023/02/09 01:06:51;;;;;;;3.60;3.28;;;;;;;;;;2087183;28;20025;-75
2023/02/09 01:08:10;;;;;;;5.03;3.33;;;;;;;;;;2088275;28;20092;-76
2023/02/09 01:09:29;;;;;;;5.47;3.20;;;;;;;;;;2085377;28;20025;-77
2023/02/09 01:10:48;;;;;;;3.38;2.85;;;;;;;;;;2080442;28;20025;-76
2023/02/09 01:12:07;;;;;;;5.13;3.75;;;;;;;;;;2085524;28;20068;-75
2023/02/09 01:13:26;;;;;;;5.10;2.53;;;;;;;;;;2081586;28;20022;-76
2023/02/09 01:14:45;;;;;;;4.30;2.53;;;;;;;;;;2079078;28;20030;-78
2023/02/09 01:16:07;;;;;;;4.70;2.67;;;;;;;;;;2081488;28;20488;-77
2023/02/09 01:17:26;;;;;;;3.58;3.10;;;;;;;;;;2082578;28;20044;-77
2023/02/09 01:18:45;;;;;;;4.47;3.00;;;;;;;;;;2080177;28;20018;-76
2023/02/09 01:20:05;;;;;;;3.20;2.55;;;;;;;;;;2083357;28;20573;-76
2023/02/09 01:21:24;;;;;;;4.88;2.47;;;;;;;;;;2083309;28;20116;-77
2023/02/09 01:22:44;;;;;;;5.40;3.13;;;;;;;;;;2080674;28;20041;-75
2023/02/09 01:24:03;;;;;;;4.53;2.50;;;;;;;;;;2082832;28;20034;-76
2023/02/09 01:25:22;;;;;;;4.07;3.20;;;;;;;;;;2083175;28;20482;-76
2023/02/09 01:26:41;;;;;;;4.00;2.75;;;;;;;;;;2082602;28;20041;-75
2023/02/09 01:28:00;;;;;;;7.50;3.33;;;;;;;;;;2083930;28;20033;-76
2023/02/09 01:29:20;;;;;;;5.15;2.92;;;;;;;;;;2080621;28;20394;-78
2023/02/09 01:30:39;;;;;;;4.57;2.80;;;;;;;;;;2089043;28;20698;-75
2023/02/09 01:31:57;;;;;;;4.10;3.15;;;;;;;;;;2084985;28;20029;-76
2023/02/09 01:33:16;;;;;;;3.60;2.83;;;;;;;;;;2076458;28;20033;-76
2023/02/09 01:34:35;;;;;;;3.28;2.75;;;;;;;;;;2082769;28;20026;-77
2023/02/09 01:35:56;;;;;;;2.97;2.38;;;;;;;;;;2084235;28;20021;-75
2023/02/09 01:37:15;;;;;;;5.18;2.42;;;;;;;;;;2082716;28;20025;-76
2023/02/09 01:38:34;;;;;;;3.60;3.10;;;;;;;;;;2081845;28;20025;-75
2023/02/09 01:39:53;;;;;;;4.25;3.10;;;;;;;;;;2081661;28;20021;-75
2023/02/09 01:41:12;;;;;;;4.53;3.10;;;;;;;;;;2081797;28;20037;-75
2023/02/09 01:42:31;;;;;;;4.57;2.50;;;;;;;;;;2082304;28;20026;-75
2023/02/09 01:43:55;;;;;;;3.63;2.00;;;;;;;;;;2083062;28;20056;-75
2023/02/09 01:45:24;;;;;;;3.20;2.80;;;;;;;;;;2079747;28;20030;-76
2023/02/09 01:46:44;;;;;;;3.15;2.63;;;;;;;;;;2081090;28;20042;-76
2023/02/09 01:48:03;;;;;;;5.90;2.83;;;;;;;;;;2083198;28;20061;-75
2023/02/09 01:49:25;;;;;;;4.30;2.88;;;;;;;;;;2081408;28;20041;-76
2023/02/09 01:50:46;;;;;;;3.45;2.83;;;;;;;;;;2082682;28;20033;-75
2023/02/09 01:52:10;;;;;;;6.97;2.70;;;;;;;;;;2083722;28;20509;-77
2023/02/09 01:53:31;;;;;;;7.20;3.22;;;;;;;;;;2083189;28;20029;-75
2023/02/09 01:55:04;;;;;;;3.58;2.88;;;;;;;;;;2082182;28;20025;-76
2023/02/09 01:56:28;;;;;;;3.67;2.95;;;;;;;;;;2081578;28;20061;-77
2023/02/09 01:58:00;;;;;;;3.83;2.60;;;;;;;;;;2081704;28;20040;-75
2023/02/09 01:59:19;;;;;;;4.05;2.92;;;;;;;;;;2080847;28;20034;-75
2023/02/09 02:00:38;;;;;;;3.17;2.72;;;;;;;;;;2080681;28;20025;-76
2023/02/09 02:01:57;;;;;;;3.97;3.30;;;;;;;;;;2081985;28;20414;-75
2023/02/09 02:03:18;;;;;;;3.15;2.88;;;;;;;;;;2076501;28;20330;-75
2023/02/09 02:04:38;;;;;;;5.43;3.03;;;;;;;;;;2078472;28;20417;-76
2023/02/09 02:06:23;;;;;;;3.65;2.75;;;;;;;;;;2081794;28;20025;-75
2023/02/09 02:07:42;;;;;;;3.70;2.60;;;;;;;;;;2083260;28;20037;-76
2023/02/09 02:09:03;;;;;;;3.05;2.80;;;;;;;;;;2077906;28;20037;-77
2023/02/09 02:10:22;;;;;;;3.63;2.97;;;;;;;;;;2078658;28;20029;-76
2023/02/09 02:11:43;;;;;;;2.67;2.17;;;;;;;;;;2084228;28;20163;-76
2023/02/09 02:13:02;;;;;;;5.03;2.55;;;;;;;;;;2090805;28;20428;-75
2023/02/09 02:14:28;;;;;;;4.88;3.47;;;;;;;;;;2082820;28;20038;-77
2023/02/09 02:15:47;;;;;;;3.83;2.60;;;;;;;;;;2081566;28;20414;-76
2023/02/09 02:17:09;;;;;;;3.33;3.03;;;;;;;;;;2085473;28;20033;-77
2023/02/09 02:18:40;;;;;;;2.78;2.33;;;;;;;;;;2081094;28;20022;-79
2023/02/09 02:19:59;;;;;;;3.10;2.67;;;;;;;;;;2082152;28;20025;-75
2023/02/09 02:21:36;;;;;;;4.00;3.22;;;;;;;;;;2076198;28;20030;-76
2023/02/09 02:22:58;;;;;;;3.05;2.10;;;;;;;;;;2083744;28;20030;-75
2023/02/09 02:24:31;;;;;;;3.00;2.60;;;;;;;;;;2080970;28;20518;-76
2023/02/09 02:26:13;;;;;;;6.00;2.83;;;;;;;;;;2086690;28;20053;-77
2023/02/09 02:27:41;;;;;;;3.42;2.70;;;;;;;;;;2082778;28;20482;-76
2023/02/09 02:29:11;;;;;;;3.40;2.72;;;;;;;;;;2078662;28;20049;-75
2023/02/09 02:30:33;;;;;;;5.85;2.92;;;;;;;;;;2080144;28;20063;-77
2023/02/09 02:32:04;;;;;;;7.90;3.75;;;;;;;;;;2082009;28;20034;-76
2023/02/09 02:33:29;;;;;;;4.63;3.00;;;;;;;;;;2082724;28;20088;-76
2023/02/09 02:34:56;;;;;;;3.65;3.05;;;;;;;;;;2089740;28;20112;-76
2023/02/09 02:36:25;;;;;;;3.30;2.95;;;;;;;;;;2081688;28;20089;-76
2023/02/09 02:37:54;;;;;;;4.45;2.65;;;;;;;;;;2078541;28;20037;-78
2023/02/09 02:39:23;;;;;;;5.38;2.78;;;;;;;;;;2080112;28;20030;-75
2023/02/09 02:40:47;;;;;;;3.58;2.80;;;;;;;;;;2079830;28;20441;-75
2023/02/09 02:43:56;;;;;;;3.75;2.60;;;;;;;;;;2083765;28;20386;-75
2023/02/09 02:45:18;;;;;;;3.53;2.55;;;;;;;;;;2081021;28;20033;-77
2023/02/09 02:46:40;;;;;;;6.00;3.75;;;;;;;;;;2080064;28;20553;-76
2023/02/09 02:48:20;;;;;;;3.63;3.20;;;;;;;;;;2087186;28;20036;-76
2023/02/09 02:49:41;;;;;;;3.53;3.22;;;;;;;;;;2079468;28;20526;-76
2023/02/09 02:51:09;;;;;;;4.28;3.15;;;;;;;;;;2080209;28;20022;-76
2023/02/09 02:52:28;;;;;;;6.10;3.05;;;;;;;;;;2082645;28;20033;-76
2023/02/09 02:53:54;;;;;;;3.67;2.67;;;;;;;;;;2083623;28;20422;-76
2023/02/09 02:55:15;;;;;;;4.20;3.38;;;;;;;;;;2081671;28;20025;-77
2023/02/09 02:56:41;;;;;;;3.40;3.10;;;;;;;;;;2085213;28;20041;-76
2023/02/09 02:58:03;;;;;;;4.75;3.20;;;;;;;;;;2083387;28;20029;-79
2023/02/09 02:59:25;;;;;;;5.38;3.38;;;;;;;;;;2083931;28;20053;-75
2023/02/09 03:00:48;;;;;;;3.25;2.95;;;;;;;;;;2083671;28;20021;-76
2023/02/09 03:02:14;;;;;;;4.18;3.35;;;;;;;;;;2087680;28;20045;-76
2023/02/09 03:03:34;;;;;;;4.97;2.95;;;;;;;;;;2082196;28;20557;-76
2023/02/09 03:04:55;;;;;;;3.00;2.60;;;;;;;;;;2083387;28;20484;-76
2023/02/09 03:06:15;;;;;;;3.75;3.10;;;;;;;;;;2084776;28;20034;-76
2023/02/09 03:07:34;;;;;;;3.30;2.97;;;;;;;;;;2086041;28;20502;-76
2023/02/09 03:08:55;;;;;;;5.10;3.28;;;;;;;;;;2080477;28;20116;-77
2023/02/09 03:10:34;;;;;;;5.05;2.83;;;;;;;;;;2090186;28;20037;-76
2023/02/09 03:11:55;;;;;;;3.63;3.20;;;;;;;;;;2083173;28;20029;-76
2023/02/09 03:13:32;;;;;;;4.80;3.22;;;;;;;;;;2085934;28;20025;-77
2023/02/09 03:15:10;;;;;;;5.22;3.47;;;;;;;;;;2083309;28;20049;-76
2023/02/09 03:16:56;;;;;;;3.85;3.20;;;;;;;;;;2081817;28;20029;-75
2023/02/09 03:18:18;;;;;;;4.22;3.50;;;;;;;;;;2082111;28;20349;-76
2023/02/09 03:19:49;;;;;;;3.70;3.00;;;;;;;;;;2087045;28;20483;-77
2023/02/09 03:21:38;;;;;;;3.13;2.88;;;;;;;;;;2091563;28;20025;-76
2023/02/09 03:23:01;;;;;;;4.40;3.13;;;;;;;;;;2080884;28;20032;-76
2023/02/09 03:24:28;;;;;;;4.95;3.78;;;;;;;;;;2082093;28;20037;-76
2023/02/09 03:25:48;;;;;;;6.47;3.90;;;;;;;;;;2090806;28;20151;-76
2023/02/09 03:27:16;;;;;;;4.22;3.47;;;;;;;;;;2083099;28;20033;-75
2023/02/09 03:28:38;;;;;;;6.13;3.60;;;;;;;;;;2079664;28;20112;-76
2023/02/09 03:29:59;;;;;;;4.75;3.63;;;;;;;;;;2088403;28;20041;-75
2023/02/09 03:31:19;;;;;;;7.00;4.28;;;;;;;;;;2083749;28;20469;-76
2023/02/09 03:32:42;;;;;;;4.45;3.72;;;;;;;;;;2083585;28;20485;-76
2023/02/09 03:34:01;;;;;;;5.28;3.65;;;;;;;;;;2085620;28;20049;-76
2023/02/09 03:35:21;;;;;;;4.60;3.17;;;;;;;;;;2083747;28;20029;-77
2023/02/09 03:36:40;;;;;;;7.18;3.50;;;;;;;;;;2083216;28;20112;-77
2023/02/09 03:38:00;;;;;;;3.67;3.38;;;;;;;;;;2082422;28;20103;-76
2023/02/09 03:39:19;;;;;;;3.97;3.50;;;;;;;;;;2083761;28;20025;-75
2023/02/09 03:40:38;;;;;;;5.47;3.78;;;;;;;;;;2083587;28;20486;-78
2023/02/09 03:41:57;;;;;;;4.05;3.63;;;;;;;;;;2078493;28;20036;-76
2023/02/09 03:43:16;;;;;;;4.15;3.75;;;;;;;;;;2082567;28;20017;-76
2023/02/09 03:44:35;;;;;;;5.28;3.58;;;;;;;;;;2084386;28;20438;-76
2023/02/09 03:45:54;;;;;;;6.65;4.13;;;;;;;;;;2083810;28;20026;-76
2023/02/09 03:47:13;;;;;;;9.40;4.60;;;;;;;;;;2079380;28;20041;-75
2023/02/09 03:48:34;;;;;;;6.13;4.28;;;;;;;;;;2080561;28;20025;-76
2023/02/09 03:49:53;;;;;;;3.50;3.20;;;;;;;;;;2082442;28;20037;-76
2023/02/09 03:51:12;;;;;;;10.40;4.50;;;;;;;;;;2082036;28;20026;-77
2023/02/09 03:52:32;;;;;;;4.35;3.90;;;;;;;;;;2081685;28;20021;-76
2023/02/09 03:53:51;;;;;;;24.23;11.82;;;;;;;;;;2086348;28;20029;-76
2023/02/09 03:55:10;;;;;;;6.97;4.38;;;;;;;;;;2083303;28;20378;-76
2023/02/09 03:56:29;;;;;;;7.80;4.85;;;;;;;;;;2082819;28;20410;-79
2023/02/09 03:57:48;;;;;;;6.00;4.20;;;;;;;;;;2090430;28;20025;-76
2023/02/09 03:59:07;;;;;;;7.32;4.03;;;;;;;;;;2081168;28;20100;-77
2023/02/09 04:00:26;;;;;;;4.65;4.00;;;;;;;;;;2081750;28;20025;-76
2023/02/09 04:01:45;;;;;;;5.03;3.63;;;;;;;;;;2084214;28;20013;-77
2023/02/09 04:03:05;;;;;;;7.07;4.00;;;;;;;;;;2084168;28;20029;-78
2023/02/09 04:04:24;;;;;;;6.93;4.15;;;;;;;;;;2082832;28;20017;-76
2023/02/09 04:05:43;;;;;;;4.78;3.42;;;;;;;;;;2084472;28;20037;-76
2023/02/09 04:07:02;;;;;;;6.60;3.78;;;;;;;;;;2084803;28;20025;-77
2023/02/09 04:08:21;;;;;;;6.25;4.38;;;;;;;;;;2083948;28;20022;-78
2023/02/09 04:09:40;;;;;;;5.10;3.80;;;;;;;;;;2078837;28;20092;-78
2023/02/09 04:10:59;;;;;;;7.35;4.68;;;;;;;;;;2081643;28;20033;-76
2023/02/09 04:12:18;;;;;;;4.82;4.32;;;;;;;;;;2084608;28;20030;-76
2023/02/09 04:13:37;;;;;;;6.43;3.80;;;;;;;;;;2083335;28;20108;-76
2023/02/09 04:14:56;;;;;;;5.65;4.57;;;;;;;;;;2085484;28;20394;-77
2023/02/09 04:16:16;;;;;;;5.72;4.22;;;;;;;;;;2090717;28;20032;-76
2023/02/09 04:17:36;;;;;;;6.50;4.93;;;;;;;;;;2080367;28;20037;-76
2023/02/09 04:18:54;;;;;;;7.57;4.82;;;;;;;;;;2084417;28;20590;-76
2023/02/09 04:20:13;;;;;;;5.93;4.60;;;;;;;;;;2086545;28;20036;-77
2023/02/09 04:21:32;;;;;;;8.32;5.03;;;;;;;;;;2084561;28;20033;-76
2023/02/09 04:22:51;;;;;;;5.40;4.43;;;;;;;;;;2081982;28;20045;-76
2023/02/09 04:24:10;;;;;;;7.75;5.15;;;;;;;;;;2082128;28;20449;-76
2023/02/09 04:25:29;;;;;;;6.68;5.28;;;;;;;;;;2083826;28;20060;-77
2023/02/09 04:26:48;;;;;;;6.38;4.68;;;;;;;;;;2079372;28;20037;-77
2023/02/09 04:28:07;;;;;;;9.05;4.70;;;;;;;;;;2084908;28;20034;-76
2023/02/09 04:29:26;;;;;;;7.20;4.63;;;;;;;;;;2083676;28;20022;-76
2023/02/09 04:30:50;;;;;;;10.23;5.35;;;;;;;;;;2080922;28;20065;-76
2023/02/09 04:32:09;;;;;;;7.65;4.80;;;;;;;;;;2083509;28;20033;-76
2023/02/09 04:33:28;;;;;;;8.55;5.18;;;;;;;;;;2081712;28;20379;-77
2023/02/09 04:34:47;;;;;;;7.63;4.28;;;;;;;;;;2082152;28;20049;-76
2023/02/09 04:36:07;;;;;;;5.35;4.15;;;;;;;;;;2079769;28;20030;-76
2023/02/09 04:37:26;;;;;;;6.07;3.97;;;;;;;;;;2088213;28;20084;-78
2023/02/09 04:38:44;;;;;;;9.27;5.20;;;;;;;;;;2082905;28;20022;-79
2023/02/09 04:40:03;;;;;;;6.40;4.50;;;;;;;;;;2077867;28;20037;-77
2023/02/09 04:41:22;;;;;;;6.78;4.68;;;;;;;;;;2077273;28;20318;-77
2023/02/09 04:42:45;;;;;;;5.95;4.85;;;;;;;;;;2087264;28;20497;-77
2023/02/09 04:44:04;;;;;;;8.45;5.25;;;;;;;;;;2086563;28;20037;-78
2023/02/09 04:45:23;;;;;;;7.32;5.50;;;;;;;;;;2083806;28;20030;-77
2023/02/09 04:46:42;;;;;;;6.72;4.93;;;;;;;;;;2084420;28;20029;-77
2023/02/09 04:48:01;;;;;;;8.15;5.82;;;;;;;;;;2083477;28;20123;-77
2023/02/09 04:49:20;;;;;;;7.03;5.28;;;;;;;;;;2080566;28;20057;-79
2023/02/09 04:50:38;;;;;;;8.48;5.43;;;;;;;;;;2081001;28;20026;-77
2023/02/09 04:51:57;;;;;;;10.85;4.70;;;;;;;;;;2086711;28;20489;-77
2023/02/09 04:53:16;;;;;;;7.43;5.00;;;;;;;;;;2080947;28;20514;-77
2023/02/09 04:54:35;;;;;;;6.55;4.55;;;;;;;;;;2080013;28;20033;-78
2023/02/09 04:55:54;;;;;;;10.18;5.68;;;;;;;;;;2089885;28;20136;-77
2023/02/09 05:00:28;;;;;;;9.35;5.13;;;;;;;;;;2083252;28;20020;-76
2023/02/09 05:01:47;;;;;;;7.95;5.35;;;;;;;;;;2083534;28;20104;-77
2023/02/09 05:03:06;;;;;;;7.03;5.45;;;;;;;;;;2084166;28;20057;-80
2023/02/09 05:04:25;;;;;;;8.95;5.47;;;;;;;;;;2085953;28;20032;-77
2023/02/09 05:05:44;;;;;;;13.98;6.10;;;;;;;;;;2083267;28;20406;-77
2023/02/09 05:07:03;;;;;;;10.60;6.00;;;;;;;;;;2083339;28;20390;-80
2023/02/09 05:08:22;;;;;;;7.75;5.10;;;;;;;;;;2083049;28;20495;-77
2023/02/09 05:09:41;;;;;;;8.13;5.80;;;;;;;;;;2083672;28;20060;-78
2023/02/09 05:11:01;;;;;;;8.18;5.53;;;;;;;;;;2092125;28;20037;-78
2023/02/09 05:12:20;;;;;;;9.32;5.25;;;;;;;;;;2087957;28;20413;-78
2023/02/09 05:13:39;;;;;;;8.20;5.75;;;;;;;;;;2083096;28;20042;-77
2023/02/09 05:14:58;;;;;;;7.97;5.47;;;;;;;;;;2082724;28;20061;-79
2023/02/09 05:16:17;;;;;;;11.23;6.15;;;;;;;;;;2082811;28;20029;-79
2023/02/09 05:17:36;;;;;;;11.20;5.75;;;;;;;;;;2079206;28;20022;-78
2023/02/09 05:18:56;;;;;;;13.43;6.82;;;;;;;;;;2079816;28;20037;-77
2023/02/09 05:20:15;;;;;;;7.90;5.82;;;;;;;;;;2080497;28;20025;-79
2023/02/09 05:21:34;;;;;;;8.38;5.90;;;;;;;;;;2082345;28;20018;-81
2023/02/09 05:22:53;;;;;;;11.00;6.03;;;;;;;;;;2080490;28;20564;-78
2023/02/09 05:24:12;;;;;;;7.10;6.00;;;;;;;;;;2083818;28;20131;-79
2023/02/09 05:25:31;;;;;;;12.88;6.15;;;;;;;;;;2080466;28;20033;-78
2023/02/09 05:26:50;;;;;;;5.55;4.88;;;;;;;;;;2082100;28;20029;-78
2023/02/09 05:28:09;;;;;;;7.32;5.78;;;;;;;;;;2076943;28;20034;-78
2023/02/09 05:29:28;;;;;;;9.13;5.72;;;;;;;;;;2083007;28;20033;-78
2023/02/09 05:30:52;;;;;;;12.82;6.53;;;;;;;;;;2082207;28;20410;-77
2023/02/09 05:32:11;;;;;;;9.88;5.88;;;;;;;;;;2081490;28;20041;-78
2023/02/09 05:33:29;;;;;;;9.15;5.68;;;;;;;;;;2078626;28;20020;-78
2023/02/09 05:34:49;;;;;;;10.07;6.25;;;;;;;;;;2080033;28;20029;-77
2023/02/09 05:36:08;;;;;;;9.10;6.57;;;;;;;;;;2082245;28;20025;-78
2023/02/09 05:37:26;;;;;;;9.63;6.53;;;;;;;;;;2081551;28;20025;-77
2023/02/09 05:38:46;;;;;;;8.50;6.05;;;;;;;;;;2082895;28;20021;-77
2023/02/09 05:40:05;;;;;;;10.35;7.03;;;;;;;;;;2087889;28;20037;-77
2023/02/09 05:43:02;;;;;;;9.35;6.07;;;;;;;;;;2079698;28;20025;-77
2023/02/09 05:44:22;;;;;;;8.98;5.68;;;;;;;;;;2085997;28;20025;-77
2023/02/09 05:45:42;;;;;;;10.68;6.38;;;;;;;;;;2083839;28;20057;-78
2023/02/09 05:47:00;;;;;;;10.40;6.63;;;;;;;;;;2083788;28;20033;-78
2023/02/09 05:48:20;;;;;;;9.38;6.50;;;;;;;;;;2083358;28;20029;-79
2023/02/09 05:49:39;;;;;;;9.68;6.47;;;;;;;;;;2079733;28;20088;-80
2023/02/09 05:50:57;;;;;;;10.90;6.60;;;;;;;;;;2087644;28;20033;-81
2023/02/09 05:52:17;;;;;;;12.18;7.00;;;;;;;;;;2086616;28;20021;-78
2023/02/09 05:53:36;;;;;;;11.43;7.32;;;;;;;;;;2083705;28;20021;-78
2023/02/09 05:54:55;;;;;;;8.88;6.30;;;;;;;;;;2081784;28;20021;-81
2023/02/09 05:56:14;;;;;;;12.82;6.85;;;;;;;;;;2083603;28;20053;-80
2023/02/09 05:57:33;;;;;;;11.98;7.10;;;;;;;;;;2085222;28;20041;-78
2023/02/09 05:58:52;;;;;;;14.13;6.60;;;;;;;;;;2081699;28;20021;-78
2023/02/09 06:00:11;;;;;;;12.95;7.07;;;;;;;;;;2084377;28;20513;-78
2023/02/09 06:01:30;;;;;;;14.23;7.05;;;;;;;;;;2083240;28;20033;-77
2023/02/09 06:02:50;;;;;;;11.32;7.07;;;;;;;;;;2084451;28;20025;-78
2023/02/09 06:04:08;;;;;;;16.88;7.03;;;;;;;;;;2082786;28;20033;-78
2023/02/09 06:05:28;;;;;;;13.00;6.93;;;;;;;;;;2083032;28;20021;-77
2023/02/09 06:06:47;;;;;;;14.25;7.38;;;;;;;;;;2080698;28;20522;-80
2023/02/09 06:08:06;;;;;;;12.93;7.13;;;;;;;;;;2087751;28;20478;-83
2023/02/09 06:09:25;;;;;;;9.60;7.18;;;;;;;;;;2079618;28;20029;-83
2023/02/09 06:10:44;;;;;;;12.27;7.80;;;;;;;;;;2084069;28;20049;-79
2023/02/09 06:12:05;;;;;;;12.32;6.47;;;;;;;;;;2084361;28;20447;-79
2023/02/09 06:13:23;;;;;;;17.05;6.95;;;;;;;;;;2084811;28;20104;-80
2023/02/09 06:14:42;;;;;;;13.05;7.13;;;;;;;;;;2081907;28;20022;-80
2023/02/09 06:16:02;;;;;;;16.02;7.03;;;;;;;;;;2083387;28;20510;-79
2023/02/09 06:17:21;;;;;;;10.23;6.75;;;;;;;;;;2084250;28;20456;-78
2023/02/09 06:18:40;;;;;;;10.93;7.13;;;;;;;;;;2082840;28;20033;-77
2023/02/09 06:19:59;;;;;;;13.68;6.75;;;;;;;;;;2082577;28;20030;-80
2023/02/09 06:21:18;;;;;;;14.90;7.13;;;;;;;;;;2085628;28;20029;-79
2023/02/09 06:22:37;;;;;;;14.45;7.22;;;;;;;;;;2083060;28;20037;-79
2023/02/09 06:24:00;;;;;;;15.93;7.35;;;;;;;;;;2078170;28;20506;-75
2023/02/09 06:25:19;;;;;;;9.90;6.43;;;;;;;;;;2081391;28;20041;-79
2023/02/09 06:26:38;;;;;;;12.30;7.53;;;;;;;;;;2084522;28;20128;-79
2023/02/09 06:28:00;;;;;;;13.48;6.45;;;;;;;;;;2081210;28;20056;-80
2023/02/09 06:29:19;;;;;;;13.57;7.50;;;;;;;;;;2082547;28;20029;-78
2023/02/09 06:30:38;;;;;;;12.98;6.97;;;;;;;;;;2083495;28;20061;-82
2023/02/09 06:31:56;;;;;;;12.13;7.05;;;;;;;;;;2084972;28;20061;-80
2023/02/09 06:33:16;;;;;;;17.25;7.10;;;;;;;;;;2083860;28;20021;-80
2023/02/09 06:34:35;;;;;;;13.77;7.82;;;;;;;;;;2081886;28;20029;-80
2023/02/09 06:35:56;;;;;;;10.13;7.50;;;;;;;;;;2080057;28;20029;-78
2023/02/09 06:37:17;;;;;;;13.10;7.43;;;;;;;;;;2085939;28;20026;-81
2023/02/09 06:38:37;;;;;;;11.45;7.40;;;;;;;;;;2085533;28;20033;-79
2023/02/09 06:39:56;;;;;;;8.60;6.20;;;;;;;;;;2082459;28;20025;-80
2023/02/09 06:41:15;;;;;;;14.07;7.32;;;;;;;;;;2085695;28;20118;-80
2023/02/09 06:42:43;;;;;;;18.90;7.57;;;;;;;;;;2081589;28;20029;-81
2023/02/09 06:44:02;;;;;;;14.32;7.78;;;;;;;;;;2085354;28;20074;-83
2023/02/09 06:45:21;;;;;;;14.23;7.57;;;;;;;;;;2079837;28;20357;-82
2023/02/09 06:46:41;;;;;;;14.82;7.90;;;;;;;;;;2085435;28;20033;-81
2023/02/09 06:48:00;;;;;;;9.75;6.95;;;;;;;;;;2085054;28;20037;-80
2023/02/09 06:49:22;;;;;;;9.68;6.70;;;;;;;;;;2084903;28;20021;-81
2023/02/09 06:50:41;;;;;;;13.63;7.50;;;;;;;;;;2085623;28;20477;-81
2023/02/09 06:52:00;;;;;;;13.68;6.80;;;;;;;;;;2085439;28;20041;-80
2023/02/09 06:53:19;;;;;;;13.98;7.95;;;;;;;;;;2087147;28;20017;-81
2023/02/09 06:54:37;;;;;;;16.20;8.13;;;;;;;;;;2092477;28;20025;-80
2023/02/09 06:56:00;;;;;;;17.98;8.18;;;;;;;;;;2084306;28;20105;-80
2023/02/09 06:57:19;;;;;;;15.38;7.00;;;;;;;;;;2084183;28;20029;-79
2023/02/09 06:58:39;;;;;;;11.45;8.10;;;;;;;;;;2082119;28;20502;-81
2023/02/09 06:59:58;;;;;;;13.32;7.78;;;;;;;;;;2084271;28;20037;-82
2023/02/09 07:01:17;;;;;;;13.88;7.55;;;;;;;;;;2087347;28;20033;-80
2023/02/09 07:02:36;;;;;;;17.30;7.18;;;;;;;;;;2083757;28;20029;-81
2023/02/09 07:03:55;;;;;;;12.27;7.03;;;;;;;;;;2087329;28;20033;-82
2023/02/09 07:05:15;;;;;;;11.98;7.40;;;;;;;;;;2083816;28;20041;-81
2023/02/09 07:06:34;;;;;;;12.40;7.10;;;;;;;;;;2082735;28;20033;-82
2023/02/09 07:07:54;;;;;;;16.25;7.70;;;;;;;;;;2086518;28;20030;-82
2023/02/09 07:09:13;;;;;;;14.35;7.80;;;;;;;;;;2081690;28;20116;-81
2023/02/09 07:10:32;;;;;;;12.07;7.03;;;;;;;;;;2084641;28;20507;-80
2023/02/09 07:11:51;;;;;;;15.30;8.35;;;;;;;;;;2090775;28;20480;-81
2023/02/09 07:13:10;;;;;;;12.07;7.20;;;;;;;;;;2085327;28;20430;-80
2023/02/09 07:14:29;;;;;;;14.05;7.70;;;;;;;;;;2086627;28;20037;-81
2023/02/09 07:15:55;;;;;;;12.63;7.88;;;;;;;;;;2084662;28;20033;-81
2023/02/09 07:17:14;;;;;;;15.40;7.53;;;;;;;;;;2085410;28;20026;-82
2023/02/09 07:18:33;;;;;;;15.55;7.07;;;;;;;;;;2085435;28;20029;-81
2023/02/09 07:19:52;;;;;;;15.18;7.10;;;;;;;;;;2087125;28;20025;-81
2023/02/09 07:21:18;;;;;;;14.05;7.93;;;;;;;;;;2083662;28;20053;-81
2023/02/09 07:22:37;;;;;;;16.15;7.95;;;;;;;;;;2085447;28;20025;-80
2023/02/09 07:23:56;;;;;;;12.73;7.03;;;;;;;;;;2081521;28;20029;-81
2023/02/09 07:25:15;;;;;;;17.40;8.57;;;;;;;;;;2087051;28;20021;-81
2023/02/09 07:26:34;;;;;;;11.63;7.43;;;;;;;;;;2082833;28;20049;-81
2023/02/09 07:27:53;;;;;;;15.15;7.93;;;;;;;;;;2083331;28;20092;-81
2023/02/09 07:29:12;;;;;;;14.35;8.07;;;;;;;;;;2083155;28;20056;-81
2023/02/09 07:30:31;;;;;;;15.05;7.88;;;;;;;;;;2083025;28;20025;-80
2023/02/09 07:31:51;;;;;;;14.65;7.57;;;;;;;;;;2081959;28;20037;-81
2023/02/09 07:33:10;;;;;;;11.95;7.82;;;;;;;;;;2080160;28;20116;-81
2023/02/09 07:34:29;;;;;;;13.10;7.78;;;;;;;;;;2080835;28;20029;-81
2023/02/09 07:35:48;;;;;;;16.83;8.05;;;;;;;;;;2085018;28;20025;-80
2023/02/09 07:37:10;;;;;;;14.95;7.50;;;;;;;;;;2085862;28;20037;-81
2023/02/09 07:38:29;;;;;;;19.15;8.07;;;;;;;;;;2094327;28;20036;-80
2023/02/09 07:39:48;;;;;;;11.65;7.47;;;;;;;;;;2085329;28;20061;-81
2023/02/09 07:41:12;;;;;;;13.75;7.65;;;;;;;;;;2085164;28;20406;-80
2023/02/09 07:42:31;;;;;;;13.63;7.43;;;;;;;;;;2085362;28;20100;-80
2023/02/09 07:43:50;;;;;;;16.75;8.15;;;;;;;;;;2084940;28;20060;-80
2023/02/09 07:45:09;;;;;;;14.02;7.70;;;;;;;;;;2078187;28;20115;-81
2023/02/09 07:46:28;;;;;;;17.67;7.85;;;;;;;;;;2086496;28;20444;-80
2023/02/09 07:47:47;;;;;;;15.48;8.52;;;;;;;;;;2090055;28;20033;-81
2023/02/09 07:49:06;;;;;;;18.05;7.95;;;;;;;;;;2085432;28;20032;-81
2023/02/09 07:50:25;;;;;;;16.33;7.60;;;;;;;;;;2084754;28;20021;-82
2023/02/09 07:51:44;;;;;;;13.98;8.00;;;;;;;;;;2080970;28;20424;-80
2023/02/09 07:53:03;;;;;;;20.45;7.90;;;;;;;;;;2082722;28;20041;-81
2023/02/09 07:54:22;;;;;;;17.23;7.97;;;;;;;;;;2082144;28;20034;-81
2023/02/09 07:55:41;;;;;;;16.08;8.73;;;;;;;;;;2085432;28;20061;-81
2023/02/09 07:57:01;;;;;;;18.98;8.35;;;;;;;;;;2089132;28;20024;-81
2023/02/09 07:58:21;;;;;;;15.93;8.43;;;;;;;;;;2085338;28;20030;-81
2023/02/09 07:59:41;;;;;;;16.23;8.43;;;;;;;;;;2084626;28;20029;-81
2023/02/09 08:01:04;;;;;;;16.27;9.02;;;;;;;;;;2085725;28;20092;-82
2023/02/09 08:02:27;;;;;;;16.50;8.93;;;;;;;;;;2083849;28;20652;-81
2023/02/09 08:03:48;;;;;;;17.73;8.13;;;;;;;;;;2081290;28;20026;-81
2023/02/09 08:05:10;;;;;;;16.27;9.32;;;;;;;;;;2079945;28;20025;-81
2023/02/09 08:06:33;;;;;;;16.33;8.50;;;;;;;;;;2086533;28;20037;-81
2023/02/09 08:07:52;;;;;;;18.63;9.32;;;;;;;;;;2084870;28;20112;-81
2023/02/09 08:09:13;;;;;;;14.23;8.77;;;;;;;;;;2085283;28;20116;-81
2023/02/09 08:10:32;;;;;;;18.02;8.93;;;;;;;;;;2078315;28;20082;-80